createdAt,value
2023-02-07T00:00:01.311Z,97.02
2023-02-07T00:05:01.902Z,95.99
2023-02-07T00:10:01.279Z,95.99
2023-02-07T00:15:01.529Z,94.24
2023-02-07T00:20:01.627Z,93.25
2023-02-07T00:25:01.973Z,93.09
2023-02-07T00:30:01.584Z,92.67
2023-02-07T00:35:01.727Z,92.28
2023-02-07T00:40:01.583Z,92.33
2023-02-07T00:45:02.034Z,92.13
2023-02-07T00:50:02.134Z,92.19
2023-02-07T00:55:01.418Z,92.36
2023-02-07T01:00:01.714Z,92.46
2023-02-07T01:05:01.377Z,92.53
2023-02-07T01:10:01.841Z,92.64
2023-02-07T01:15:01.641Z,92.49
2023-02-07T01:20:01.679Z,92.52
2023-02-07T01:25:02.266Z,92.74
2023-02-07T01:30:02.275Z,92.83
2023-02-07T01:35:01.448Z,93.17
2023-02-07T01:40:01.818Z,93.36
2023-02-07T01:45:01.348Z,93.32
2023-02-07T01:50:01.790Z,93.43
2023-02-07T01:55:02.078Z,93.5
2023-02-07T02:00:01.269Z,94.16
2023-02-07T02:05:01.596Z,93.99
2023-02-07T02:10:02.185Z,93.61
2023-02-07T02:15:01.518Z,93.15
2023-02-07T02:20:02.220Z,93.19
2023-02-07T02:25:01.288Z,92.77
2023-02-07T02:30:01.952Z,91.93
2023-02-07T02:35:02.231Z,91.3
2023-02-07T02:40:01.549Z,90.7
2023-02-07T02:45:02.248Z,91.64
2023-02-07T02:50:01.712Z,93.12
2023-02-07T02:55:02.171Z,93.27
2023-02-07T03:00:02.238Z,94.05
2023-02-07T03:05:02.137Z,95.09
2023-02-07T03:10:01.706Z,95.11
2023-02-07T03:15:01.663Z,95.51
2023-02-07T03:20:02.018Z,95.7
2023-02-07T03:25:02.470Z,96.27
2023-02-07T03:30:02.127Z,96.84
2023-02-07T03:35:02.330Z,97.02
2023-02-07T03:40:01.905Z,97.05
2023-02-07T03:45:02.105Z,96.95
2023-02-07T03:50:02.084Z,97.26
2023-02-07T03:55:01.914Z,97.5
2023-02-07T04:00:02.153Z,97.68
2023-02-07T04:05:02.518Z,97.72
2023-02-07T04:10:02.282Z,95.99
2023-02-07T04:15:02.230Z,98.18
2023-02-07T04:20:02.585Z,97.62
2023-02-07T04:25:02.584Z,95.25
2023-02-07T04:30:02.189Z,98.27
2023-02-07T04:35:01.479Z,98.37
2023-02-07T04:40:01.943Z,98.03
2023-02-07T04:45:02.085Z,97.98
2023-02-07T04:50:02.424Z,97.76
2023-02-07T04:55:01.603Z,97.53
2023-02-07T05:00:02.216Z,97.39
2023-02-07T05:05:02.350Z,96.64
2023-02-07T05:10:02.227Z,97.55
2023-02-07T05:15:01.573Z,97.53
2023-02-07T05:20:19.181Z,97.79
2023-02-07T05:25:02.622Z,97.69
2023-02-07T05:30:02.991Z,98.48
2023-02-07T05:35:02.340Z,98.43
2023-02-07T05:40:02.531Z,97.68
2023-02-07T05:45:02.537Z,98.53
2023-02-07T05:50:01.506Z,97.39
2023-02-07T05:55:02.070Z,98.71
2023-02-07T06:00:03.404Z,97.74
2023-02-07T06:05:02.763Z,98.36
2023-02-07T06:10:02.347Z,96.17
2023-02-07T06:15:02.082Z,98.64
2023-02-07T06:20:02.360Z,96.61
2023-02-07T06:25:02.337Z,98.99
2023-02-07T06:30:02.012Z,98.69
2023-02-07T06:35:01.635Z,98.76
2023-02-07T06:40:02.255Z,98.22
2023-02-07T06:45:02.661Z,98.42
2023-02-07T06:50:01.933Z,99.04
2023-02-07T06:55:02.089Z,98.33
2023-02-07T07:00:02.593Z,98.39
2023-02-07T07:05:02.282Z,98.69
2023-02-07T07:10:01.806Z,98.66
2023-02-07T07:15:02.164Z,98.27
2023-02-07T07:20:01.974Z,98.43
2023-02-07T07:25:02.220Z,98.34
2023-02-07T07:30:02.506Z,97.18
2023-02-07T07:35:02.496Z,96.96
2023-02-07T07:40:02.192Z,99.26
2023-02-07T07:45:02.404Z,98.95
2023-02-07T07:50:02.065Z,96.73
2023-02-07T07:55:02.324Z,98.29
2023-02-07T08:00:01.680Z,97.98
2023-02-07T08:05:01.639Z,98.48
2023-02-07T08:10:01.686Z,95.93
2023-02-07T08:15:02.118Z,97.87
2023-02-07T08:20:01.668Z,97.8
2023-02-07T08:25:01.896Z,95.37
2023-02-07T08:30:02.138Z,93.25
2023-02-07T08:35:02.163Z,91.8
2023-02-07T08:40:02.382Z,90.51
2023-02-07T08:45:02.315Z,90.06
2023-02-07T08:50:01.760Z,88.88
2023-02-07T08:55:02.286Z,88.07
2023-02-07T09:00:01.458Z,87.5
2023-02-07T09:05:02.329Z,86.3
2023-02-07T09:10:02.244Z,85.95
2023-02-07T09:15:02.133Z,85.1
2023-02-07T09:20:02.246Z,84.29
2023-02-07T09:25:02.625Z,83.14
2023-02-07T09:30:01.661Z,82.76
2023-02-07T09:35:01.741Z,81.39
2023-02-07T09:40:02.143Z,81.51
2023-02-07T09:45:02.394Z,81.07
2023-02-07T09:50:02.221Z,81.3
2023-02-07T09:55:02.375Z,80.8
2023-02-07T10:00:02.064Z,78.61
2023-02-07T10:05:02.137Z,78.23
2023-02-07T10:10:02.316Z,77.45
2023-02-07T10:15:02.390Z,76.35
2023-02-07T10:20:02.265Z,77.24
2023-02-07T10:25:02.138Z,75.62
2023-02-07T10:30:02.288Z,73.66
2023-02-07T10:35:02.173Z,72.69
2023-02-07T10:40:01.922Z,72.91
2023-02-07T10:45:02.763Z,73.58
2023-02-07T10:50:01.958Z,73.56
2023-02-07T10:55:01.708Z,73.19
2023-02-07T11:00:02.655Z,71.35
2023-02-07T11:05:02.112Z,70
2023-02-07T11:10:01.818Z,67.94
2023-02-07T11:15:02.053Z,66.86
2023-02-07T11:20:01.871Z,66.62
2023-02-07T11:25:02.304Z,67.62
2023-02-07T11:30:02.635Z,64.08
2023-02-07T11:35:02.347Z,63.99
2023-02-07T11:40:02.299Z,62.38
2023-02-07T11:45:01.786Z,63.87
2023-02-07T11:50:02.108Z,63.29
2023-02-07T11:55:01.912Z,63.25
2023-02-07T12:00:01.907Z,62.56
2023-02-07T12:05:02.313Z,63.25
2023-02-07T12:10:02.071Z,64.76
2023-02-07T12:15:02.421Z,64.19
2023-02-07T12:20:03.083Z,63.24
2023-02-07T12:25:01.446Z,63.24
2023-02-07T12:30:02.078Z,64.71
2023-02-07T12:35:01.462Z,64.28
2023-02-07T12:40:01.588Z,65.44
2023-02-07T12:45:01.988Z,65.83
2023-02-07T12:50:01.464Z,66.55
2023-02-07T12:55:01.843Z,66.72
2023-02-07T13:00:01.483Z,65.96
2023-02-07T13:05:02.182Z,64.81
2023-02-07T13:10:01.808Z,64.31
2023-02-07T13:15:01.253Z,64.06
2023-02-07T13:20:01.536Z,64.13
2023-02-07T13:25:01.725Z,63.27
2023-02-07T13:30:02.106Z,64.29
2023-02-07T13:35:02.222Z,65.35
2023-02-07T13:40:01.528Z,61.66
2023-02-07T13:45:02.083Z,62.16
2023-02-07T13:50:01.319Z,62.07
2023-02-07T13:55:02.265Z,62.63
2023-02-07T14:00:01.357Z,61.08
2023-02-07T14:05:01.864Z,61.75
2023-02-07T14:10:01.441Z,58.52
2023-02-07T14:15:03.306Z,57.99
2023-02-07T14:20:01.344Z,58.83
2023-02-07T14:25:02.001Z,58.92
2023-02-07T14:30:01.692Z,59.23
2023-02-07T14:35:02.038Z,60.59
2023-02-07T14:40:02.238Z,61.53
2023-02-07T14:45:01.413Z,61.22
2023-02-07T14:50:02.053Z,60.15
2023-02-07T14:55:02.179Z,59.85
2023-02-07T15:00:02.223Z,59.87
2023-02-07T15:05:01.938Z,60.88
2023-02-07T15:10:01.437Z,61.33
2023-02-07T15:15:01.377Z,60.63
2023-02-07T15:20:01.920Z,60.67
2023-02-07T15:25:01.332Z,60.23
2023-02-07T15:30:01.750Z,61.33
2023-02-07T15:35:02.270Z,62.04
2023-02-07T15:40:01.529Z,62.2
2023-02-07T15:45:02.062Z,62.02
2023-02-07T15:50:01.423Z,62.9
2023-02-07T15:55:01.851Z,59.99
2023-02-07T16:00:02.219Z,59.08
2023-02-07T16:05:01.484Z,58.25
2023-02-07T16:10:01.990Z,57.86
2023-02-07T16:15:02.369Z,57.87
2023-02-07T16:20:01.337Z,57.53
2023-02-07T16:25:01.996Z,57.99
2023-02-07T16:30:01.328Z,58.83
2023-02-07T16:35:01.853Z,59.36
2023-02-07T16:40:02.091Z,60.83
2023-02-07T16:45:01.607Z,62.24
2023-02-07T16:50:02.183Z,62.9
2023-02-07T16:55:01.418Z,63.71
2023-02-07T17:00:02.028Z,66.25
2023-02-07T17:05:01.616Z,67.25
2023-02-07T17:10:01.383Z,67.86
2023-02-07T17:15:01.790Z,70.35
2023-02-07T17:20:01.402Z,71.96
2023-02-07T17:25:02.042Z,72.38
2023-02-07T17:30:01.349Z,71.1
2023-02-07T17:35:01.980Z,70.15
2023-02-07T17:40:02.088Z,71.59
2023-02-07T17:45:01.307Z,72.67
2023-02-07T17:50:01.838Z,73.21
2023-02-07T17:55:02.261Z,71.59
2023-02-07T18:00:01.447Z,70.37
2023-02-07T18:05:01.459Z,71.23
2023-02-07T18:10:02.044Z,71.49
2023-02-07T18:15:01.648Z,72.26
2023-02-07T18:20:01.329Z,74.3
2023-02-07T18:25:01.758Z,76.97
2023-02-07T18:30:01.862Z,77.18
2023-02-07T18:35:01.400Z,75.4
2023-02-07T18:40:02.120Z,72.5
2023-02-07T18:45:01.461Z,74.17
2023-02-07T18:50:02.003Z,74.17
2023-02-07T18:55:02.075Z,74.03
2023-02-07T19:00:02.083Z,73.85
2023-02-07T19:05:01.336Z,73.81
2023-02-07T19:10:02.102Z,73.27
2023-02-07T19:15:01.503Z,72.56
2023-02-07T19:20:02.023Z,73.51
2023-02-07T19:25:01.561Z,74.91
2023-02-07T19:30:02.057Z,76.16
2023-02-07T19:35:01.451Z,77.49
2023-02-07T19:40:01.914Z,77.34
2023-02-07T19:45:02.138Z,76.8
2023-02-07T19:50:01.576Z,77.15
2023-02-07T19:55:02.185Z,76.78
2023-02-07T20:00:01.494Z,76.63
2023-02-07T20:05:02.081Z,75.16
2023-02-07T20:10:01.628Z,74.95
2023-02-07T20:15:02.123Z,75.22
2023-02-07T20:20:01.573Z,73.91
2023-02-07T20:25:01.796Z,73.59
2023-02-07T20:30:02.031Z,72.99
2023-02-07T20:35:02.297Z,72.85
2023-02-07T20:40:01.607Z,74.43
2023-02-07T20:45:01.873Z,76.41
2023-02-07T20:50:02.105Z,77.5
2023-02-07T20:55:01.433Z,79.46
2023-02-07T21:00:01.851Z,80.23
2023-02-07T21:05:01.312Z,80.04
2023-02-07T21:10:01.952Z,80.25
2023-02-07T21:15:01.620Z,78.67
2023-02-07T21:20:01.484Z,77.27
2023-02-07T21:25:01.808Z,75.91
2023-02-07T21:30:02.190Z,77.18
2023-02-07T21:35:02.295Z,76.82
2023-02-07T21:40:02.202Z,75.68
2023-02-07T21:45:02.073Z,72.47
2023-02-07T21:50:01.271Z,71.72
2023-02-07T21:55:01.911Z,70.94
2023-02-07T22:00:01.548Z,70.29
2023-02-07T22:05:01.529Z,70.78
2023-02-07T22:10:02.127Z,70.27
2023-02-07T22:15:01.914Z,70.51
2023-02-07T22:20:01.564Z,70.08
2023-02-07T22:25:02.136Z,69.72
2023-02-07T22:30:02.206Z,69.68
2023-02-07T22:35:01.371Z,69.9
2023-02-07T22:40:01.935Z,70.19
2023-02-07T22:45:02.099Z,70.5
2023-02-07T22:50:01.352Z,72.33
2023-02-07T22:55:01.602Z,74.68
2023-02-07T23:00:02.185Z,74.67
2023-02-07T23:05:01.933Z,76.11
2023-02-07T23:10:02.274Z,78.27
2023-02-07T23:15:01.414Z,79.33
2023-02-07T23:20:02.137Z,80.38
2023-02-07T23:25:01.608Z,80.92
2023-02-07T23:30:01.853Z,81.76
2023-02-07T23:35:01.547Z,83.15
2023-02-07T23:40:01.883Z,82.45
2023-02-07T23:45:02.112Z,83.09
2023-02-07T23:50:02.481Z,82.13
2023-02-07T23:55:02.470Z,82.91
